Time;durP1;ratioP1;P1;durP2;ratioP2;P2;SDS_P1;SDS_P2;PMS_P1;PMS_P2;Temp;Humidity;BMP_temperature;BMP_pressure;BME280_temperature;BME280_humidity;BME280_pressure;Samples;Min_cycle;Max_cycle;Signal;HPM_P1;HPM_P2
2023/01/27 00:00:49;;;;;;;20.23;8.93;;;-0.30;99.90;;;;;;5015639;28;20181;-79
2023/01/27 00:03:15;;;;;;;19.07;8.80;;;-0.20;99.90;;;;;;5015637;28;20268;-77
2023/01/27 00:05:41;;;;;;;18.37;9.00;;;-0.20;99.90;;;;;;5033182;28;20212;-78
2023/01/27 00:08:06;;;;;;;19.90;8.57;;;-0.20;99.90;;;;;;5015183;28;20205;-77
2023/01/27 00:10:32;;;;;;;17.03;7.97;;;-0.10;99.90;;;;;;5015421;28;20182;-77
2023/01/27 00:15:41;;;;;;;14.33;7.10;;;-0.20;99.90;;;;;;5032544;28;20555;-77
2023/01/27 00:18:07;;;;;;;12.83;5.53;;;-0.20;99.90;;;;;;5033048;28;20202;-78
2023/01/27 00:26:06;;;;;;;12.17;5.87;;;-0.20;99.90;;;;;;5033084;28;20183;-78
2023/01/27 00:28:36;;;;;;;11.73;6.33;;;-0.20;99.90;;;;;;5032679;28;20197;-78
2023/01/27 00:31:03;;;;;;;12.37;6.30;;;-0.20;99.90;;;;;;5032321;28;20270;-77
2023/01/27 00:33:29;;;;;;;12.93;6.57;;;-0.20;99.90;;;;;;5032981;28;20215;-78
2023/01/27 00:36:03;;;;;;;12.27;5.57;;;-0.20;99.90;;;;;;5032859;28;20208;-78
2023/01/27 00:38:30;;;;;;;9.67;5.13;;;-0.30;99.90;;;;;;5014886;28;20218;-78
2023/01/27 00:41:18;;;;;;;10.27;5.27;;;-0.30;99.90;;;;;;5014875;28;20177;-77
2023/01/27 00:43:48;;;;;;;10.30;5.67;;;-0.40;99.90;;;;;;5032634;28;20200;-77
2023/01/27 00:46:15;;;;;;;9.50;5.07;;;-0.30;99.90;;;;;;5014675;28;20174;-77
2023/01/27 00:48:40;;;;;;;11.03;5.40;;;-0.30;99.90;;;;;;5015150;28;20262;-77
2023/01/27 00:51:06;;;;;;;10.33;5.50;;;-0.30;99.90;;;;;;5032360;28;20168;-77
2023/01/27 00:53:32;;;;;;;9.40;5.10;;;-0.30;99.90;;;;;;5014749;28;20272;-77
2023/01/27 00:55:58;;;;;;;11.10;5.37;;;-0.30;99.90;;;;;;5014581;28;20263;-78
2023/01/27 00:58:25;;;;;;;9.23;5.47;;;-0.30;99.90;;;;;;5014420;28;20743;-78
2023/01/27 01:00:58;;;;;;;11.13;4.90;;;-0.20;99.90;;;;;;5014741;28;20227;-77
2023/01/27 01:03:24;;;;;;;8.80;5.00;;;-0.30;99.90;;;;;;5014519;28;20616;-78
2023/01/27 01:05:49;;;;;;;8.93;5.03;;;-0.30;99.90;;;;;;5014546;28;20173;-78
2023/01/27 01:08:15;;;;;;;8.87;5.43;;;-0.30;99.90;;;;;;5014484;28;20189;-78
2023/01/27 01:10:41;;;;;;;9.67;5.03;;;-0.30;99.90;;;;;;5014539;28;20169;-80
2023/01/27 01:13:08;;;;;;;9.50;5.00;;;-0.30;99.90;;;;;;5018228;28;20180;-80
2023/01/27 01:15:36;;;;;;;11.10;5.00;;;-0.30;99.90;;;;;;5035659;28;20178;-80
2023/01/27 01:18:03;;;;;;;9.70;5.23;;;-0.30;99.90;;;;;;5035872;28;20189;-81
2023/01/27 01:20:30;;;;;;;10.17;4.97;;;-0.30;99.90;;;;;;5036244;28;20405;-80
2023/01/27 01:22:56;;;;;;;11.13;5.40;;;-0.30;99.90;;;;;;5019058;28;20732;-80
2023/01/27 01:25:21;;;;;;;9.17;4.90;;;-0.40;99.90;;;;;;5037920;28;20196;-80
2023/01/27 01:27:47;;;;;;;9.07;5.13;;;-0.30;99.90;;;;;;5026397;28;20193;-80
2023/01/27 01:30:13;;;;;;;10.83;5.50;;;-0.30;99.90;;;;;;5042397;28;20185;-80
2023/01/27 01:32:38;;;;;;;9.63;5.03;;;-0.30;99.90;;;;;;5024830;28;20188;-80
2023/01/27 01:35:04;;;;;;;10.00;5.23;;;-0.40;99.90;;;;;;5024544;28;20283;-80
2023/01/27 01:37:30;;;;;;;9.03;5.07;;;-0.30;99.90;;;;;;5024812;28;20185;-79
2023/01/27 01:39:55;;;;;;;6.63;4.50;;;-0.40;99.90;;;;;;5042489;28;20291;-80
2023/01/27 01:42:21;;;;;;;8.90;5.10;;;-0.30;99.90;;;;;;5042129;28;20210;-81
2023/01/27 01:44:50;;;;;;;7.57;5.10;;;-0.30;99.90;;;;;;5041586;28;20220;-80
2023/01/27 01:47:16;;;;;;;9.03;5.07;;;-0.30;99.90;;;;;;5024032;28;20203;-80
2023/01/27 01:49:45;;;;;;;7.97;4.60;;;-0.30;99.90;;;;;;5038695;28;20195;-78
2023/01/27 01:52:16;;;;;;;7.33;4.43;;;-0.40;99.90;;;;;;5038292;28;20235;-78
2023/01/27 01:54:46;;;;;;;8.20;4.40;;;-0.40;99.90;;;;;;5038258;28;20220;-78
2023/01/27 01:57:17;;;;;;;8.90;4.40;;;-0.40;99.90;;;;;;5038168;28;20224;-78
2023/01/27 01:59:51;;;;;;;8.00;4.20;;;-0.40;99.90;;;;;;5020410;28;20236;-78
2023/01/27 02:02:22;;;;;;;7.13;4.00;;;-0.40;99.90;;;;;;5038249;28;20186;-79
2023/01/27 02:04:54;;;;;;;6.43;3.90;;;-0.50;99.90;;;;;;5020509;28;20270;-78
2023/01/27 02:07:29;;;;;;;7.00;3.90;;;-0.50;99.90;;;;;;5020798;28;20215;-78
2023/01/27 02:09:55;;;;;;;6.10;3.93;;;-0.50;99.90;;;;;;5038210;28;20177;-78
2023/01/27 02:12:21;;;;;;;4.80;3.50;;;-0.50;99.90;;;;;;5020521;28;20188;-78
2023/01/27 02:14:47;;;;;;;6.23;3.40;;;-0.50;99.90;;;;;;5020632;28;20186;-78
2023/01/27 02:17:13;;;;;;;5.27;2.97;;;-0.40;99.90;;;;;;5038047;28;20636;-78
2023/01/27 02:19:58;;;;;;;5.03;3.17;;;-0.50;99.90;;;;;;5020323;28;20625;-78
2023/01/27 02:22:31;;;;;;;4.50;2.83;;;-0.50;99.90;;;;;;5038209;28;20207;-78
2023/01/27 02:25:07;;;;;;;5.03;3.03;;;-0.50;99.90;;;;;;5038034;28;20232;-78
2023/01/27 02:27:32;;;;;;;3.83;2.60;;;-0.50;99.90;;;;;;5020319;28;20275;-78
2023/01/27 02:29:58;;;;;;;4.00;3.13;;;-0.50;99.90;;;;;;5020242;28;20271;-78
2023/01/27 02:32:25;;;;;;;3.90;3.00;;;-0.50;99.90;;;;;;5020311;28;20291;-78
2023/01/27 02:34:52;;;;;;;4.90;3.60;;;-0.50;99.90;;;;;;5020109;28;20204;-78
2023/01/27 02:37:18;;;;;;;5.37;3.30;;;-0.50;99.90;;;;;;5018620;28;20192;-77
2023/01/27 02:39:47;;;;;;;4.67;3.10;;;-0.40;99.90;;;;;;5068420;22;20227;-85
2023/01/27 02:42:15;;;;;;;4.57;3.37;;;-0.40;99.90;;;;;;5053314;28;20180;-86
2023/01/27 02:44:41;;;;;;;4.70;3.13;;;-0.40;99.90;;;;;;5053282;28;20254;-84
2023/01/27 02:47:07;;;;;;;4.27;3.00;;;-0.40;99.90;;;;;;5053582;28;20211;-85
2023/01/27 02:49:32;;;;;;;4.53;3.40;;;-0.40;99.90;;;;;;5053396;28;20219;-85
2023/01/27 02:51:58;;;;;;;5.00;3.40;;;-0.40;99.90;;;;;;5053228;28;20179;-85
2023/01/27 02:54:25;;;;;;;5.27;3.60;;;-0.30;99.90;;;;;;5053203;28;20281;-86
2023/01/27 02:56:50;;;;;;;4.37;3.30;;;-0.30;99.90;;;;;;5053235;28;20196;-85
2023/01/27 02:59:16;;;;;;;4.53;3.00;;;-0.30;99.90;;;;;;5053292;28;20195;-85
2023/01/27 03:01:42;;;;;;;4.60;3.23;;;-0.30;99.90;;;;;;5054339;28;20184;-85
2023/01/27 03:04:10;;;;;;;4.93;3.77;;;-0.30;99.90;;;;;;5054266;28;20205;-85
2023/01/27 03:06:36;;;;;;;4.93;3.33;;;-0.30;99.90;;;;;;5053028;28;20172;-85
2023/01/27 03:09:02;;;;;;;4.53;3.47;;;-0.30;99.90;;;;;;5054164;28;20220;-87
2023/01/27 03:14:12;;;;;;;5.07;3.40;;;-0.20;99.90;;;;;;5054448;28;20184;-84
2023/01/27 03:19:21;;;;;;;5.40;3.17;;;-0.20;99.90;;;;;;5054320;28;20204;-85
2023/01/27 03:21:49;;;;;;;5.27;3.50;;;-0.10;99.90;;;;;;5052486;28;20177;-85
2023/01/27 03:24:15;;;;;;;6.43;3.80;;;-0.20;99.90;;;;;;5052439;28;20208;-85
2023/01/27 03:26:41;;;;;;;5.47;3.73;;;-0.20;99.90;;;;;;5052669;28;20188;-85
2023/01/27 03:31:50;;;;;;;4.87;3.47;;;-0.10;99.90;;;;;;5054125;28;20235;-85
2023/01/27 03:34:16;;;;;;;4.93;3.73;;;-0.20;99.90;;;;;;5053695;28;20177;-85
2023/01/27 03:47:37;;;;;;;5.53;4.03;;;-0.20;99.90;;;;;;5053845;28;20176;-85
2023/01/27 03:50:10;;;;;;;7.10;4.50;;;-0.10;99.90;;;;;;5052340;28;20197;-83
2023/01/27 03:52:36;;;;;;;5.80;3.97;;;-0.10;99.90;;;;;;5053375;28;20242;-85
2023/01/27 03:55:02;;;;;;;6.20;4.00;;;-0.10;99.90;;;;;;5052099;28;20260;-85
2023/01/27 03:57:28;;;;;;;6.70;4.50;;;-0.10;99.90;;;;;;5052326;28;20588;-85
2023/01/27 03:59:54;;;;;;;5.23;3.87;;;-0.10;99.90;;;;;;5051990;28;20691;-85
2023/01/27 04:07:48;;;;;;;7.50;4.27;;;-0.10;99.90;;;;;;5052992;28;20279;-85
2023/01/27 04:10:14;;;;;;;5.57;3.70;;;-0.10;99.90;;;;;;5051575;28;20255;-85
2023/01/27 04:12:39;;;;;;;5.00;3.70;;;-0.10;99.90;;;;;;5052004;28;20239;-85
2023/01/27 04:15:05;;;;;;;5.83;4.17;;;-0.10;99.90;;;;;;5051854;28;20172;-85
2023/01/27 04:17:37;;;;;;;6.57;3.97;;;-0.10;99.90;;;;;;5052721;28;20230;-85
2023/01/27 04:20:03;;;;;;;7.80;4.00;;;-0.10;99.90;;;;;;5051368;28;20229;-85
2023/01/27 04:22:29;;;;;;;6.07;3.97;;;-0.10;99.90;;;;;;5051756;28;20176;-86
2023/01/27 04:24:55;;;;;;;7.27;4.27;;;-0.10;99.90;;;;;;5051609;28;20210;-85
2023/01/27 04:27:20;;;;;;;6.90;4.23;;;-0.10;99.90;;;;;;5051625;28;20178;-85
2023/01/27 04:29:46;;;;;;;6.93;4.07;;;-0.10;99.90;;;;;;5052796;28;20205;-85
2023/01/27 04:32:12;;;;;;;6.43;4.47;;;-0.10;99.90;;;;;;5052615;28;20187;-86
2023/01/27 04:34:38;;;;;;;8.03;4.60;;;-0.10;99.90;;;;;;5051267;28;20191;-85
2023/01/27 04:37:06;;;;;;;8.77;5.10;;;0.00;99.90;;;;;;5051378;28;20180;-85
2023/01/27 04:39:33;;;;;;;6.73;4.43;;;-0.10;99.90;;;;;;5051110;28;20593;-85
2023/01/27 04:41:58;;;;;;;6.97;4.50;;;-0.10;99.90;;;;;;5051383;28;20272;-85
2023/01/27 04:44:24;;;;;;;7.87;4.57;;;-0.10;99.90;;;;;;5051132;28;20299;-85
2023/01/27 04:46:50;;;;;;;7.00;4.87;;;-0.10;99.90;;;;;;5051159;28;20185;-85
2023/01/27 04:49:17;;;;;;;7.93;5.13;;;-0.10;99.90;;;;;;5052242;28;20196;-86
2023/01/27 04:51:43;;;;;;;8.37;4.90;;;-0.10;99.90;;;;;;5051174;28;20197;-85
2023/01/27 04:54:08;;;;;;;6.90;4.60;;;-0.10;99.90;;;;;;5051055;28;20177;-85
2023/01/27 04:56:35;;;;;;;7.77;4.63;;;-0.10;99.90;;;;;;5051134;28;20183;-85
2023/01/27 04:59:04;;;;;;;5.63;3.93;;;0.00;99.90;;;;;;5051079;28;20235;-85
2023/01/27 05:01:30;;;;;;;6.10;4.30;;;0.00;99.90;;;;;;5050516;28;20185;-85
2023/01/27 05:03:57;;;;;;;7.13;4.30;;;0.00;99.90;;;;;;5050858;28;20211;-85
2023/01/27 05:06:23;;;;;;;6.80;4.20;;;0.10;99.90;;;;;;5052328;28;20631;-85
2023/01/27 05:08:49;;;;;;;7.40;4.57;;;0.00;99.90;;;;;;5050901;28;20204;-85
2023/01/27 05:11:16;;;;;;;7.00;4.00;;;0.00;99.90;;;;;;5052034;28;20259;-85
2023/01/27 05:13:41;;;;;;;6.70;4.43;;;0.00;99.90;;;;;;5052034;28;20181;-85
2023/01/27 05:16:13;;;;;;;6.33;3.70;;;0.00;99.90;;;;;;5050702;28;20666;-87
2023/01/27 05:18:40;;;;;;;5.93;3.83;;;0.00;99.90;;;;;;5050978;28;20205;-87
2023/01/27 05:21:07;;;;;;;6.87;3.93;;;0.10;99.90;;;;;;5050761;28;20687;-85
2023/01/27 05:23:35;;;;;;;6.37;3.93;;;0.10;99.90;;;;;;5050386;28;20177;-85
2023/01/27 05:26:13;;;;;;;6.63;3.83;;;0.00;99.90;;;;;;5051906;28;20177;-85
2023/01/27 05:28:41;;;;;;;5.50;3.57;;;0.00;99.90;;;;;;5051725;28;20192;-85
2023/01/27 05:31:12;;;;;;;5.30;3.83;;;0.00;99.90;;;;;;5050850;28;20546;-85
2023/01/27 05:33:39;;;;;;;5.50;3.90;;;0.00;99.90;;;;;;5052057;28;20177;-85
2023/01/27 05:36:06;;;;;;;5.17;3.47;;;0.10;99.90;;;;;;5050907;28;20180;-85
2023/01/27 05:38:32;;;;;;;5.87;3.33;;;0.10;99.90;;;;;;5051765;28;20280;-85
2023/01/27 05:41:04;;;;;;;4.77;3.37;;;0.00;99.90;;;;;;5050417;28;20315;-85
2023/01/27 05:43:31;;;;;;;5.70;3.60;;;0.00;99.90;;;;;;5050447;28;20259;-85
2023/01/27 05:46:17;;;;;;;4.93;3.23;;;0.10;99.90;;;;;;5050769;28;20181;-85
2023/01/27 05:48:48;;;;;;;6.70;3.20;;;0.00;99.90;;;;;;5050652;28;20192;-85
2023/01/27 05:51:15;;;;;;;4.80;3.27;;;0.00;99.90;;;;;;5051588;28;20183;-85
2023/01/27 05:53:42;;;;;;;4.50;2.87;;;0.00;99.90;;;;;;5051515;28;20182;-85
2023/01/27 05:56:10;;;;;;;5.10;3.00;;;0.00;99.90;;;;;;5050622;28;20187;-85
2023/01/27 05:58:37;;;;;;;4.67;2.80;;;0.10;99.90;;;;;;5050488;28;20201;-85
2023/01/27 06:01:17;;;;;;;5.23;2.70;;;0.10;99.90;;;;;;5050356;28;20177;-84
2023/01/27 06:03:44;;;;;;;4.33;2.83;;;0.10;99.90;;;;;;5050157;28;20197;-84
2023/01/27 06:06:11;;;;;;;3.73;2.67;;;0.10;99.90;;;;;;5051496;28;20191;-84
2023/01/27 06:08:38;;;;;;;4.67;2.70;;;0.10;99.90;;;;;;5050181;28;20244;-82
2023/01/27 06:11:04;;;;;;;3.57;2.97;;;0.10;99.90;;;;;;5050525;28;20174;-80
2023/01/27 06:13:30;;;;;;;4.93;3.00;;;0.10;99.90;;;;;;5052885;28;20238;-80
2023/01/27 06:15:56;;;;;;;4.87;2.93;;;0.20;99.90;;;;;;5056534;28;20192;-80
2023/01/27 06:18:23;;;;;;;4.67;3.00;;;0.20;99.90;;;;;;5065839;28;20193;-83
2023/01/27 06:20:48;;;;;;;3.50;2.60;;;0.40;99.90;;;;;;5073968;28;20628;-82
2023/01/27 06:23:16;;;;;;;3.97;2.60;;;0.70;99.90;;;;;;5075652;28;20262;-83
2023/01/27 06:25:43;;;;;;;4.13;2.80;;;1.00;99.90;;;;;;5064953;28;20216;-83
2023/01/27 06:28:10;;;;;;;3.63;2.30;;;1.20;99.90;;;;;;5056234;28;20255;-83
2023/01/27 06:30:36;;;;;;;2.93;2.23;;;1.20;99.90;;;;;;5059115;28;20176;-82
2023/01/27 06:33:03;;;;;;;3.13;2.30;;;1.30;99.90;;;;;;5075274;28;20172;-84
2023/01/27 06:35:30;;;;;;;3.33;2.50;;;1.00;99.90;;;;;;5075269;28;20669;-82
2023/01/27 06:38:00;;;;;;;4.07;2.90;;;0.80;99.90;;;;;;5075533;28;20176;-81
2023/01/27 06:40:27;;;;;;;3.47;2.33;;;0.50;99.90;;;;;;5074277;28;20191;-82
2023/01/27 06:42:53;;;;;;;3.53;2.60;;;0.40;99.90;;;;;;5075649;28;20530;-81
2023/01/27 06:45:19;;;;;;;3.27;2.37;;;0.30;99.90;;;;;;5073773;28;20212;-82
2023/01/27 06:47:44;;;;;;;2.67;2.20;;;0.40;99.90;;;;;;5056466;28;20176;-83
2023/01/27 06:50:10;;;;;;;4.07;2.73;;;0.30;99.90;;;;;;5054884;28;20243;-81
2023/01/27 06:52:37;;;;;;;3.77;2.80;;;0.30;99.90;;;;;;5053856;28;20165;-81
2023/01/27 06:55:03;;;;;;;4.40;2.97;;;0.20;99.90;;;;;;5053740;28;20181;-81
2023/01/27 06:57:29;;;;;;;8.70;3.20;;;0.20;99.90;;;;;;5054915;28;20259;-81
2023/01/27 06:59:55;;;;;;;4.37;2.67;;;0.20;99.90;;;;;;5053381;28;20282;-81
2023/01/27 07:02:20;;;;;;;4.60;3.00;;;0.20;99.90;;;;;;5053661;28;20242;-81
2023/01/27 07:04:46;;;;;;;4.20;2.93;;;0.20;99.90;;;;;;5053348;28;20204;-82
2023/01/27 07:07:11;;;;;;;4.30;2.93;;;0.20;99.90;;;;;;5053449;28;20173;-82
2023/01/27 07:09:37;;;;;;;3.53;2.73;;;0.20;99.90;;;;;;5053175;28;20201;-79
2023/01/27 07:12:03;;;;;;;3.97;3.00;;;0.20;99.90;;;;;;5053342;28;20189;-81
2023/01/27 07:14:28;;;;;;;4.87;3.13;;;0.20;99.90;;;;;;5053207;28;20184;-81
2023/01/27 07:16:54;;;;;;;4.30;3.00;;;0.20;99.90;;;;;;5054621;28;20596;-83
2023/01/27 07:19:19;;;;;;;4.37;2.93;;;0.30;99.90;;;;;;5052941;28;20228;-82
2023/01/27 07:21:45;;;;;;;4.50;3.00;;;0.30;99.90;;;;;;5053100;28;20192;-82
2023/01/27 07:24:10;;;;;;;4.60;3.00;;;0.30;99.90;;;;;;5052520;28;20216;-82
2023/01/27 07:26:36;;;;;;;3.50;2.87;;;0.40;99.90;;;;;;5053381;28;20177;-84
2023/01/27 07:29:02;;;;;;;4.87;3.33;;;0.40;99.90;;;;;;5052557;28;20212;-81
2023/01/27 07:31:27;;;;;;;4.37;3.17;;;0.30;99.90;;;;;;5052389;28;20181;-82
2023/01/27 07:33:53;;;;;;;3.40;2.73;;;0.30;99.90;;;;;;5052429;28;20223;-82
2023/01/27 07:36:19;;;;;;;3.30;2.70;;;0.30;99.90;;;;;;5052870;28;20211;-84
2023/01/27 07:38:47;;;;;;;4.50;3.47;;;0.40;99.90;;;;;;5053124;28;20215;-81
2023/01/27 07:41:13;;;;;;;5.03;3.20;;;0.30;99.90;;;;;;5053765;28;20181;-84
2023/01/27 07:43:38;;;;;;;3.40;2.60;;;0.40;99.90;;;;;;5052633;28;20234;-81
2023/01/27 07:46:04;;;;;;;3.40;2.57;;;0.40;99.90;;;;;;5052874;28;20221;-81
2023/01/27 07:48:30;;;;;;;3.20;2.47;;;0.40;99.90;;;;;;5052640;28;20283;-82
2023/01/27 07:50:56;;;;;;;4.07;2.73;;;0.40;99.90;;;;;;5052342;28;20184;-82
2023/01/27 07:53:21;;;;;;;3.60;2.60;;;0.40;99.90;;;;;;5052612;28;20178;-81
2023/01/27 07:55:47;;;;;;;3.53;2.60;;;0.50;99.90;;;;;;5052743;28;20180;-82
2023/01/27 07:58:12;;;;;;;2.80;2.50;;;0.50;99.90;;;;;;5053743;28;20200;-82
2023/01/27 08:00:38;;;;;;;3.30;2.50;;;0.50;99.90;;;;;;5052176;28;20636;-82
2023/01/27 08:03:04;;;;;;;4.00;2.70;;;0.50;99.90;;;;;;5052484;28;20200;-84
2023/01/27 08:05:32;;;;;;;3.77;2.73;;;0.50;99.90;;;;;;5052210;28;20212;-82
2023/01/27 08:08:02;;;;;;;3.27;2.47;;;0.50;99.90;;;;;;5052273;28;20187;-84
2023/01/27 08:10:28;;;;;;;3.57;2.40;;;0.50;99.90;;;;;;5051947;28;20179;-82
2023/01/27 08:12:53;;;;;;;3.43;2.57;;;0.50;99.90;;;;;;5053408;28;20169;-82
2023/01/27 08:15:19;;;;;;;3.20;2.23;;;0.50;99.90;;;;;;5052238;28;20188;-82
2023/01/27 08:17:55;;;;;;;3.60;2.73;;;0.60;99.90;;;;;;5052368;28;20182;-81
2023/01/27 08:20:22;;;;;;;3.83;2.57;;;0.60;99.90;;;;;;5053275;28;20268;-84
2023/01/27 08:22:47;;;;;;;3.17;2.40;;;0.60;99.90;;;;;;5052073;28;20265;-82
2023/01/27 08:25:13;;;;;;;3.60;2.20;;;0.60;99.90;;;;;;5053140;28;20698;-82
2023/01/27 08:27:39;;;;;;;2.60;2.33;;;0.60;99.90;;;;;;5053263;28;20180;-84
2023/01/27 08:30:05;;;;;;;2.47;1.90;;;0.70;99.90;;;;;;5051921;28;20288;-82
2023/01/27 08:32:30;;;;;;;2.63;2.27;;;0.70;99.90;;;;;;5052267;28;20183;-83
2023/01/27 08:34:56;;;;;;;2.80;2.30;;;0.70;99.90;;;;;;5052381;28;20188;-83
2023/01/27 08:37:21;;;;;;;3.47;2.57;;;0.70;99.90;;;;;;5051812;28;20670;-83
2023/01/27 08:39:47;;;;;;;3.90;2.57;;;0.70;99.90;;;;;;5052396;28;20250;-83
2023/01/27 08:42:12;;;;;;;3.30;2.10;;;0.70;99.90;;;;;;5051241;28;20254;-82
2023/01/27 08:44:38;;;;;;;2.60;2.00;;;0.80;99.90;;;;;;5051278;28;20208;-82
2023/01/27 08:47:03;;;;;;;3.10;2.20;;;0.70;99.90;;;;;;5051360;28;20203;-83
2023/01/27 08:49:29;;;;;;;3.43;2.30;;;0.70;99.90;;;;;;5051257;28;20208;-82
2023/01/27 08:51:55;;;;;;;2.73;2.13;;;0.70;99.90;;;;;;5051220;28;20177;-82
2023/01/27 08:54:20;;;;;;;2.37;2.00;;;0.70;99.90;;;;;;5052534;28;20176;-82
2023/01/27 08:56:46;;;;;;;2.27;2.07;;;0.70;99.90;;;;;;5051184;28;20194;-84
2023/01/27 08:59:11;;;;;;;2.97;2.27;;;0.70;99.90;;;;;;5052253;28;20206;-79
2023/01/27 09:01:37;;;;;;;3.67;2.27;;;0.80;99.90;;;;;;5052198;28;20216;-83
2023/01/27 09:04:02;;;;;;;3.03;1.80;;;0.70;99.90;;;;;;5052331;28;20227;-82
2023/01/27 09:06:28;;;;;;;2.30;1.90;;;0.70;99.90;;;;;;5052433;28;20588;-83
2023/01/27 09:09:14;;;;;;;2.47;2.03;;;0.80;99.90;;;;;;5050903;28;20196;-82
2023/01/27 09:11:41;;;;;;;2.30;1.80;;;0.80;99.90;;;;;;5051899;28;20188;-82
2023/01/27 09:14:07;;;;;;;2.43;2.07;;;0.80;99.90;;;;;;5052220;28;20188;-82
2023/01/27 09:16:33;;;;;;;3.23;2.23;;;0.80;99.90;;;;;;5050826;28;20203;-83
2023/01/27 09:18:58;;;;;;;3.37;2.07;;;0.80;99.90;;;;;;5052149;28;20201;-83
2023/01/27 09:21:25;;;;;;;2.60;1.80;;;0.80;99.90;;;;;;5050699;28;20181;-82
2023/01/27 09:23:51;;;;;;;2.10;1.70;;;0.90;99.90;;;;;;5050973;28;20697;-83
2023/01/27 09:26:17;;;;;;;1.90;1.73;;;0.90;99.90;;;;;;5050764;28;20267;-83
2023/01/27 09:28:43;;;;;;;2.10;1.80;;;0.90;99.90;;;;;;5050710;28;20547;-83
2023/01/27 09:31:08;;;;;;;2.87;1.70;;;0.90;99.90;;;;;;5052034;28;20208;-83
2023/01/27 09:33:35;;;;;;;1.73;1.60;;;1.00;99.90;;;;;;5050792;28;20191;-83
2023/01/27 09:36:10;;;;;;;1.73;1.50;;;1.00;99.90;;;;;;5052168;28;20173;-83
2023/01/27 09:38:44;;;;;;;1.50;1.37;;;1.00;99.90;;;;;;5051639;28;20219;-83
2023/01/27 09:41:36;;;;;;;3.07;1.80;;;1.00;99.90;;;;;;5050451;28;20585;-83
2023/01/27 09:45:07;;;;;;;2.80;1.77;;;1.00;99.90;;;;;;5050662;28;20212;-83
2023/01/27 09:48:04;;;;;;;1.60;1.50;;;1.10;99.90;;;;;;5010763;28;20182;-83
2023/01/27 09:50:39;;;;;;;1.83;1.40;;;1.10;99.90;;;;;;4997270;28;20175;-85
2023/01/27 09:53:14;;;;;;;1.60;1.40;;;1.20;99.90;;;;;;5050120;28;20188;-83
2023/01/27 09:56:03;;;;;;;2.70;1.53;;;1.30;99.90;;;;;;5054610;28;20215;-83
2023/01/27 09:58:45;;;;;;;1.33;1.23;;;1.30;99.90;;;;;;5054681;28;20201;-83
2023/01/27 10:01:37;;;;;;;1.70;1.30;;;1.40;99.90;;;;;;5055471;28;20210;-83
2023/01/27 10:04:31;;;;;;;1.83;1.40;;;1.40;99.90;;;;;;5055220;28;20691;-83
2023/01/27 10:06:57;;;;;;;3.07;1.50;;;1.50;99.90;;;;;;5055651;28;20255;-83
2023/01/27 10:09:39;;;;;;;2.20;1.43;;;1.60;99.90;;;;;;5055342;28;20319;-83
2023/01/27 10:12:14;;;;;;;1.40;1.30;;;1.60;99.90;;;;;;5054261;28;20170;-85
2023/01/27 10:15:09;;;;;;;1.67;1.40;;;1.60;99.90;;;;;;5055632;28;20173;-83
2023/01/27 10:18:22;;;;;;;1.47;1.30;;;1.60;99.90;;;;;;5054132;28;20562;-83
2023/01/27 10:21:01;;;;;;;2.00;1.50;;;1.60;99.90;;;;;;5030873;28;20182;-83
2023/01/27 10:23:45;;;;;;;2.27;1.33;;;1.70;99.90;;;;;;5054174;28;20174;-83
2023/01/27 10:26:38;;;;;;;1.90;1.53;;;1.70;99.90;;;;;;5054004;28;20674;-83
2023/01/27 10:29:25;;;;;;;1.33;1.20;;;1.70;99.90;;;;;;5054218;28;20221;-84
2023/01/27 10:32:00;;;;;;;1.80;1.50;;;1.60;99.90;;;;;;5053694;28;20255;-83
2023/01/27 10:34:29;;;;;;;1.50;1.30;;;1.60;99.90;;;;;;5054972;28;20785;-85
2023/01/27 10:37:39;;;;;;;1.77;1.40;;;1.50;99.90;;;;;;5055288;28;20169;-83
2023/01/27 10:40:30;;;;;;;1.40;1.30;;;1.60;99.90;;;;;;4996114;28;20685;-84
2023/01/27 10:43:16;;;;;;;1.47;1.30;;;1.50;99.90;;;;;;5012892;28;20167;-82
2023/01/27 10:45:53;;;;;;;1.57;1.47;;;1.50;99.90;;;;;;5039895;28;20227;-83
2023/01/27 10:48:33;;;;;;;1.77;1.37;;;1.50;99.90;;;;;;5054843;28;20193;-83
2023/01/27 10:51:06;;;;;;;1.53;1.33;;;1.60;99.90;;;;;;5053230;28;20273;-83
2023/01/27 10:53:51;;;;;;;1.20;1.10;;;1.60;99.90;;;;;;5054808;28;20181;-83
2023/01/27 10:56:32;;;;;;;2.07;1.33;;;1.60;99.90;;;;;;5054065;28;20202;-84
2023/01/27 10:59:22;;;;;;;1.20;1.10;;;1.60;99.90;;;;;;5053656;28;20197;-84
2023/01/27 11:01:54;;;;;;;1.30;1.20;;;1.60;99.90;;;;;;5054312;28;20529;-83
2023/01/27 11:04:38;;;;;;;2.07;1.40;;;1.60;99.90;;;;;;5054789;28;20219;-83
2023/01/27 11:07:05;;;;;;;1.37;1.27;;;1.60;99.90;;;;;;5053078;28;20165;-83
2023/01/27 11:09:34;;;;;;;1.47;1.30;;;1.50;99.90;;;;;;5053035;28;20328;-83
2023/01/27 11:12:04;;;;;;;1.50;1.40;;;1.50;99.90;;;;;;5053223;28;20171;-83
2023/01/27 11:14:45;;;;;;;1.60;1.37;;;1.50;99.90;;;;;;5053285;28;20176;-84
2023/01/27 11:17:24;;;;;;;2.13;1.70;;;1.50;99.90;;;;;;5053124;28;20180;-84
2023/01/27 11:20:11;;;;;;;1.60;1.30;;;1.50;99.90;;;;;;5053894;28;20197;-83
2023/01/27 11:22:54;;;;;;;1.97;1.47;;;1.60;99.90;;;;;;5054194;28;20189;-83
2023/01/27 11:25:47;;;;;;;1.53;1.33;;;1.70;99.90;;;;;;5053908;28;20227;-84
2023/01/27 11:28:44;;;;;;;1.83;1.47;;;1.80;99.90;;;;;;5053882;28;20190;-83
2023/01/27 11:31:34;;;;;;;1.77;1.60;;;1.70;99.90;;;;;;5053885;28;20173;-83
2023/01/27 11:34:18;;;;;;;1.80;1.40;;;1.70;99.90;;;;;;5053898;28;20589;-83
2023/01/27 11:36:44;;;;;;;1.33;1.23;;;1.70;99.90;;;;;;5052711;28;20165;-83
2023/01/27 11:39:11;;;;;;;1.50;1.33;;;1.70;99.90;;;;;;5053911;28;20335;-83
2023/01/27 11:41:39;;;;;;;1.47;1.37;;;1.80;99.90;;;;;;5053874;28;20173;-84
2023/01/27 11:44:18;;;;;;;1.40;1.20;;;1.90;99.90;;;;;;5053599;28;20204;-83
2023/01/27 11:46:45;;;;;;;1.30;1.20;;;1.80;99.90;;;;;;5052448;28;20268;-83
2023/01/27 11:49:19;;;;;;;1.30;1.20;;;1.80;99.90;;;;;;5052312;28;20244;-84
2023/01/27 11:51:45;;;;;;;1.33;1.20;;;1.90;99.90;;;;;;5053551;28;20178;-84
2023/01/27 11:54:19;;;;;;;1.40;1.30;;;2.00;99.90;;;;;;5052250;28;20177;-83
2023/01/27 11:56:47;;;;;;;1.57;1.30;;;2.00;99.90;;;;;;5052175;28;20173;-83
2023/01/27 11:59:16;;;;;;;1.67;1.23;;;2.00;99.90;;;;;;5052148;28;20598;-83
2023/01/27 12:01:50;;;;;;;1.93;1.13;;;2.00;99.90;;;;;;5053445;28;20174;-83
2023/01/27 12:04:22;;;;;;;1.50;1.40;;;2.00;99.90;;;;;;5052063;28;20193;-83
2023/01/27 12:07:00;;;;;;;1.20;1.10;;;2.00;99.90;;;;;;5051988;28;20176;-83
2023/01/27 12:09:33;;;;;;;1.37;1.27;;;2.10;99.90;;;;;;5053187;28;20193;-83
2023/01/27 12:12:13;;;;;;;1.50;1.40;;;2.20;99.90;;;;;;5052321;28;20636;-83
2023/01/27 12:14:53;;;;;;;1.60;1.50;;;2.10;99.90;;;;;;5052251;28;20591;-83
2023/01/27 12:17:29;;;;;;;1.77;1.37;;;2.10;99.90;;;;;;5052065;28;20231;-83
2023/01/27 12:19:59;;;;;;;2.20;1.40;;;2.00;99.90;;;;;;5052919;28;20205;-83
2023/01/27 12:22:31;;;;;;;1.47;1.37;;;2.00;99.90;;;;;;5052180;28;20323;-83
2023/01/27 12:25:01;;;;;;;1.77;1.30;;;2.00;99.90;;;;;;5051659;28;20667;-83
2023/01/27 12:27:30;;;;;;;1.40;1.30;;;2.00;99.90;;;;;;5053165;28;20185;-84
2023/01/27 12:30:00;;;;;;;1.40;1.20;;;2.00;99.90;;;;;;5051543;28;20201;-83
2023/01/27 12:32:38;;;;;;;1.23;1.10;;;2.00;99.90;;;;;;5053022;28;20174;-83
2023/01/27 12:35:04;;;;;;;1.40;1.30;;;2.00;99.90;;;;;;5053120;28;20182;-83
2023/01/27 12:37:36;;;;;;;1.40;1.17;;;2.10;99.90;;;;;;5051596;28;20190;-83
2023/01/27 12:40:05;;;;;;;1.40;1.10;;;2.10;99.90;;;;;;5051294;28;20214;-82
2023/01/27 12:42:36;;;;;;;1.20;1.10;;;2.10;99.90;;;;;;5052321;28;20591;-83
2023/01/27 12:45:16;;;;;;;1.20;1.10;;;2.10;99.90;;;;;;5052850;28;20296;-83
2023/01/27 12:48:01;;;;;;;1.37;1.27;;;2.10;99.90;;;;;;5051386;28;20275;-83
2023/01/27 12:50:30;;;;;;;1.33;1.23;;;2.10;99.90;;;;;;5051324;28;20178;-83
2023/01/27 12:53:04;;;;;;;2.00;1.20;;;2.20;99.90;;;;;;5051232;28;20202;-83
2023/01/27 12:55:37;;;;;;;1.10;1.00;;;2.30;99.90;;;;;;5051133;28;20174;-83
2023/01/27 12:58:03;;;;;;;1.30;1.20;;;2.20;99.90;;;;;;5052231;28;20182;-83
2023/01/27 13:00:30;;;;;;;1.30;1.20;;;2.20;99.90;;;;;;5051016;28;20185;-83
2023/01/27 13:03:09;;;;;;;1.30;1.20;;;2.20;99.90;;;;;;5051444;28;20174;-83
2023/01/27 13:05:38;;;;;;;1.50;1.20;;;2.10;99.90;;;;;;5052308;28;20636;-83
2023/01/27 13:08:04;;;;;;;1.50;1.10;;;2.20;99.90;;;;;;5051318;28;20172;-83
2023/01/27 13:10:29;;;;;;;1.30;1.10;;;2.10;99.90;;;;;;5050749;28;20178;-83
2023/01/27 13:13:00;;;;;;;1.20;1.10;;;2.10;99.90;;;;;;5051320;28;20589;-83
2023/01/27 13:15:28;;;;;;;1.00;0.90;;;2.10;99.90;;;;;;5051103;28;20181;-83
2023/01/27 13:17:56;;;;;;;1.00;0.90;;;2.10;99.90;;;;;;5051909;28;20180;-83
2023/01/27 13:20:29;;;;;;;1.13;1.03;;;2.00;99.90;;;;;;5050819;28;20186;-83
2023/01/27 13:23:06;;;;;;;1.07;0.93;;;2.00;99.90;;;;;;5050559;28;20558;-84
2023/01/27 13:25:52;;;;;;;0.90;0.90;;;2.00;99.90;;;;;;5050736;28;20691;-83
2023/01/27 13:28:26;;;;;;;1.03;0.93;;;2.00;99.90;;;;;;5052077;28;20201;-83
2023/01/27 13:30:56;;;;;;;1.10;1.00;;;2.00;99.90;;;;;;5051970;28;20173;-83
2023/01/27 13:33:42;;;;;;;1.27;1.07;;;2.00;99.90;;;;;;5050823;28;20632;-83
2023/01/27 13:36:25;;;;;;;1.17;1.03;;;2.00;99.90;;;;;;5050744;28;20260;-83
2023/01/27 13:39:03;;;;;;;1.20;1.10;;;2.00;99.90;;;;;;5051886;28;20221;-82
2023/01/27 13:41:39;;;;;;;1.10;1.00;;;2.10;99.90;;;;;;5050494;28;20661;-83